createdAt,value
2022-08-29T00:03:55.973Z,12.00
2022-08-29T00:09:55.955Z,12.20
2022-08-29T00:15:55.945Z,12.30
2022-08-29T00:21:55.960Z,12.30
2022-08-29T00:27:55.950Z,12.00
2022-08-29T00:33:55.910Z,12.20
2022-08-29T00:39:55.969Z,12.10
2022-08-29T00:45:56.033Z,11.30
2022-08-29T00:51:55.957Z,11.60
2022-08-29T00:57:55.966Z,11.80
2022-08-29T01:03:55.973Z,11.40
2022-08-29T01:09:55.953Z,12.60
2022-08-29T01:15:56.041Z,12.30
2022-08-29T01:21:55.943Z,12.40
2022-08-29T01:27:55.918Z,11.30
2022-08-29T01:33:56.137Z,13.30
2022-08-29T01:39:55.949Z,12.50
2022-08-29T01:45:56.023Z,12.30
2022-08-29T01:51:55.960Z,12.60
2022-08-29T01:57:55.955Z,12.10
2022-08-29T02:03:56.139Z,11.50
2022-08-29T02:09:56.163Z,12.80
2022-08-29T02:15:56.191Z,11.90
2022-08-29T02:21:56.196Z,11.80
2022-08-29T02:27:56.129Z,12.10
2022-08-29T02:33:56.127Z,14.50
2022-08-29T02:39:56.152Z,12.80
2022-08-29T02:45:56.168Z,13.00
2022-08-29T02:51:56.159Z,12.10
2022-08-29T02:57:56.142Z,12.90
2022-08-29T03:03:56.114Z,11.60
2022-08-29T03:09:56.167Z,11.60
2022-08-29T03:15:56.186Z,13.10
2022-08-29T03:21:56.136Z,14.10
2022-08-29T03:27:56.119Z,13.60
2022-08-29T03:33:56.125Z,13.80
2022-08-29T03:39:56.194Z,14.40
2022-08-29T03:45:56.151Z,14.10
2022-08-29T03:51:56.150Z,12.90
2022-08-29T03:57:56.152Z,14.90
2022-08-29T04:03:56.127Z,15.40
2022-08-29T04:09:56.173Z,15.30
2022-08-29T04:15:56.230Z,16.60
2022-08-29T04:21:56.169Z,17.10
2022-08-29T04:27:56.144Z,16.40
2022-08-29T04:33:56.154Z,17.10
2022-08-29T04:39:56.256Z,16.90
2022-08-29T04:45:56.248Z,16.90
2022-08-29T04:51:56.174Z,16.40
2022-08-29T04:57:56.184Z,17.20
2022-08-29T05:03:56.165Z,17.20
2022-08-29T05:09:56.182Z,16.30
2022-08-29T05:15:56.316Z,16.40
2022-08-29T05:21:56.423Z,15.70
2022-08-29T05:27:56.432Z,15.70
2022-08-29T05:33:56.408Z,14.20
2022-08-29T05:39:56.414Z,14.50
2022-08-29T05:45:56.455Z,13.20
2022-08-29T05:51:56.433Z,12.00
2022-08-29T05:57:56.415Z,11.60
2022-08-29T06:03:56.540Z,11.40
2022-08-29T06:09:58.270Z,12.00
2022-08-29T06:15:56.501Z,11.80
2022-08-29T06:21:56.437Z,11.20
2022-08-29T06:27:56.497Z,10.10
2022-08-29T06:33:56.431Z,10.20
2022-08-29T06:39:56.520Z,9.50
2022-08-29T06:45:56.538Z,9.80
2022-08-29T06:51:58.334Z,9.10
2022-08-29T06:57:56.495Z,8.20
2022-08-29T07:03:56.503Z,7.80
2022-08-29T07:09:56.475Z,7.00
2022-08-29T07:15:56.498Z,7.40
2022-08-29T07:21:58.284Z,7.00
2022-08-29T07:27:56.500Z,7.10
2022-08-29T07:34:02.748Z,5.70
2022-08-29T07:39:56.553Z,6.60
2022-08-29T07:45:56.585Z,6.30
2022-08-29T07:51:56.515Z,6.00
2022-08-29T07:57:56.531Z,5.30
2022-08-29T08:03:56.549Z,5.70
2022-08-29T08:09:56.568Z,5.10
2022-08-29T08:15:56.562Z,5.20
2022-08-29T08:21:56.555Z,5.00
2022-08-29T08:27:56.555Z,4.90
2022-08-29T08:33:56.544Z,5.10
2022-08-29T08:39:56.605Z,4.60
2022-08-29T08:45:56.616Z,4.40
2022-08-29T08:51:56.560Z,4.00
2022-08-29T08:57:56.573Z,4.30
2022-08-29T09:03:56.552Z,3.90
2022-08-29T09:09:56.584Z,3.90
2022-08-29T09:15:56.618Z,4.20
2022-08-29T09:21:56.611Z,3.60
2022-08-29T09:27:56.640Z,4.20
2022-08-29T09:33:56.646Z,4.10
2022-08-29T09:39:56.690Z,4.10
2022-08-29T09:45:56.763Z,4.00
2022-08-29T09:51:56.670Z,3.80
2022-08-29T09:57:56.709Z,4.10
2022-08-29T10:03:56.692Z,4.00
2022-08-29T10:09:57.631Z,3.90
2022-08-29T10:15:56.699Z,4.30
2022-08-29T10:21:56.696Z,4.10
2022-08-29T10:27:56.696Z,4.20
2022-08-29T10:33:56.698Z,4.10
2022-08-29T10:39:56.725Z,4.40
2022-08-29T10:45:56.744Z,4.60
2022-08-29T10:51:56.724Z,4.30
2022-08-29T10:57:56.714Z,4.50
2022-08-29T11:03:56.733Z,4.40
2022-08-29T11:09:56.979Z,4.20
2022-08-29T11:15:56.806Z,4.00
2022-08-29T11:21:56.937Z,3.90
2022-08-29T11:27:56.756Z,3.90
2022-08-29T11:33:56.767Z,3.70
2022-08-29T11:39:56.785Z,3.90
2022-08-29T11:45:56.794Z,4.00
2022-08-29T11:51:56.790Z,3.60
2022-08-29T11:58:00.507Z,3.60
2022-08-29T12:03:56.780Z,3.50
2022-08-29T12:09:56.817Z,3.30
2022-08-29T12:15:56.839Z,3.70
2022-08-29T12:21:56.824Z,3.30
2022-08-29T12:27:56.818Z,3.30
2022-08-29T12:33:56.818Z,3.50
2022-08-29T12:39:57.026Z,3.40
2022-08-29T12:45:56.854Z,3.50
2022-08-29T12:51:56.845Z,3.40
2022-08-29T12:57:56.854Z,3.10
2022-08-29T13:03:56.886Z,3.20
2022-08-29T13:09:56.857Z,3.50
2022-08-29T13:15:56.901Z,3.20
2022-08-29T13:21:56.868Z,3.40
2022-08-29T13:28:01.065Z,3.20
2022-08-29T13:33:56.850Z,3.00
2022-08-29T13:39:56.950Z,3.10
2022-08-29T13:45:56.918Z,3.50
2022-08-29T13:51:56.954Z,2.90
2022-08-29T13:57:56.971Z,2.80
2022-08-29T14:03:57.078Z,2.40
2022-08-29T14:27:56.990Z,2.80
2022-08-29T14:33:57.007Z,2.50
2022-08-29T14:39:57.097Z,2.80
2022-08-29T14:45:57.047Z,2.50
2022-08-29T15:15:57.086Z,2.70
2022-08-29T15:21:57.046Z,2.90
2022-08-29T15:27:57.030Z,3.20
2022-08-29T15:51:57.092Z,3.50
2022-08-29T15:57:57.091Z,3.70
2022-08-29T16:03:57.099Z,3.30
2022-08-29T16:39:57.169Z,3.70
2022-08-29T16:57:57.157Z,3.30
2022-08-29T17:03:57.152Z,3.80
2022-08-29T17:09:57.157Z,3.80
2022-08-29T17:15:57.164Z,3.70
2022-08-29T17:21:57.172Z,3.40
2022-08-29T17:28:16.714Z,3.80
2022-08-29T18:03:57.230Z,3.90
2022-08-29T18:09:57.228Z,4.00
2022-08-29T18:15:57.496Z,4.40
2022-08-29T19:21:57.331Z,6.10
2022-08-29T19:27:57.303Z,6.10
2022-08-29T19:33:57.325Z,6.20
2022-08-29T19:39:57.388Z,6.10
2022-08-29T19:51:57.401Z,6.80
2022-08-29T19:57:57.402Z,7.10
2022-08-29T20:03:57.392Z,6.90
2022-08-29T20:09:57.459Z,7.10
2022-08-29T20:15:57.468Z,7.70
2022-08-29T20:21:57.392Z,7.20
2022-08-29T20:27:57.394Z,7.10
2022-08-29T20:51:57.408Z,7.50
2022-08-29T20:57:57.415Z,7.40
2022-08-29T21:03:57.426Z,7.70
2022-08-29T21:09:57.427Z,7.60
2022-08-29T21:15:57.461Z,8.20
2022-08-29T21:21:57.486Z,8.20
2022-08-29T21:27:57.479Z,7.80
2022-08-29T21:45:57.469Z,8.10
2022-08-29T21:51:57.510Z,8.80
2022-08-29T22:21:58.608Z,8.70
2022-08-29T22:27:58.713Z,9.40
2022-08-29T22:51:57.515Z,10.10
2022-08-29T22:57:57.524Z,10.40
2022-08-29T23:03:57.532Z,10.70
2022-08-29T23:09:57.524Z,10.70
2022-08-29T23:15:57.607Z,11.00
2022-08-29T23:21:57.549Z,12.70
2022-08-29T23:27:57.524Z,11.90
2022-08-29T23:33:57.567Z,11.60
